sensor_id;sensor_type;location;lat;lon;timestamp;pressure;altitude;pressure_sealevel;temperature;humidity
67345;BME280;54230;52.402;6.276;2022-10-16T00:00:00;100990.0;;;13.1;87.4
67345;BME280;54230;52.402;6.276;2022-10-16T00:05:00;100980.0;;;13.0;88.0
67345;BME280;54230;52.402;6.276;2022-10-16T00:10:00;100980.0;;;13.0;88.2
67345;BME280;54230;52.402;6.276;2022-10-16T00:15:00;100980.0;;;12.9;88.2
67345;BME280;54230;52.402;6.276;2022-10-16T00:20:00;100990.0;;;12.9;88.2
67345;BME280;54230;52.402;6.276;2022-10-16T00:25:00;100990.0;;;12.8;88.4
67345;BME280;54230;52.402;6.276;2022-10-16T00:30:00;100980.0;;;12.8;88.6
67345;BME280;54230;52.402;6.276;2022-10-16T00:35:00;100980.0;;;12.7;88.7
67345;BME280;54230;52.402;6.276;2022-10-16T00:40:00;100980.0;;;12.7;89.0
67345;BME280;54230;52.402;6.276;2022-10-16T00:45:00;100980.0;;;12.7;88.8
67345;BME280;54230;52.402;6.276;2022-10-16T00:50:07;100990.0;;;12.7;88.9
67345;BME280;54230;52.402;6.276;2022-10-16T00:55:01;100970.0;;;12.6;88.8
67345;BME280;54230;52.402;6.276;2022-10-16T01:00:00;100980.0;;;12.6;88.9
67345;BME280;54230;52.402;6.276;2022-10-16T01:05:00;100980.0;;;12.5;89.4
67345;BME280;54230;52.402;6.276;2022-10-16T01:10:07;100980.0;;;12.5;89.4
67345;BME280;54230;52.402;6.276;2022-10-16T01:15:03;100980.0;;;12.5;89.9
67345;BME280;54230;52.402;6.276;2022-10-16T01:20:03;100990.0;;;12.4;89.9
67345;BME280;54230;52.402;6.276;2022-10-16T01:25:02;100990.0;;;12.5;89.7
67345;BME280;54230;52.402;6.276;2022-10-16T01:30:05;101000.0;;;12.6;89.6
67345;BME280;54230;52.402;6.276;2022-10-16T01:35:04;100990.0;;;12.6;89.6
67345;BME280;54230;52.402;6.276;2022-10-16T01:40:02;100990.0;;;12.6;89.7
67345;BME280;54230;52.402;6.276;2022-10-16T01:45:01;100980.0;;;12.6;89.9
67345;BME280;54230;52.402;6.276;2022-10-16T01:50:02;100970.0;;;12.6;90.1
67345;BME280;54230;52.402;6.276;2022-10-16T01:55:02;100970.0;;;12.7;90.4
67345;BME280;54230;52.402;6.276;2022-10-16T02:00:05;100970.0;;;12.7;90.6
67345;BME280;54230;52.402;6.276;2022-10-16T02:05:05;100980.0;;;12.7;90.9
67345;BME280;54230;52.402;6.276;2022-10-16T02:10:00;100980.0;;;12.6;91.0
67345;BME280;54230;52.402;6.276;2022-10-16T02:15:00;100980.0;;;12.7;91.4
67345;BME280;54230;52.402;6.276;2022-10-16T02:20:00;100990.0;;;12.7;91.3
67345;BME280;54230;52.402;6.276;2022-10-16T02:25:03;100980.0;;;12.6;92.1
67345;BME280;54230;52.402;6.276;2022-10-16T02:30:05;100980.0;;;12.6;92.3
67345;BME280;54230;52.402;6.276;2022-10-16T02:35:01;100990.0;;;12.6;92.5
67345;BME280;54230;52.402;6.276;2022-10-16T02:40:00;100990.0;;;12.6;92.5
67345;BME280;54230;52.402;6.276;2022-10-16T02:45:00;101000.0;;;12.6;92.9
67345;BME280;54230;52.402;6.276;2022-10-16T02:50:00;101000.0;;;12.7;92.6
67345;BME280;54230;52.402;6.276;2022-10-16T02:55:00;100990.0;;;12.6;93.2
67345;BME280;54230;52.402;6.276;2022-10-16T03:00:00;101010.0;;;12.6;93.1
67345;BME280;54230;52.402;6.276;2022-10-16T03:05:00;100940.0;;;12.2;93.4
67345;BME280;54230;52.402;6.276;2022-10-16T03:10:00;101000.0;;;12.6;93.3
67345;BME280;54230;52.402;6.276;2022-10-16T03:15:00;101010.0;;;12.6;93.7
67345;BME280;54230;52.402;6.276;2022-10-16T03:20:00;101020.0;;;12.6;93.5
67345;BME280;54230;52.402;6.276;2022-10-16T03:25:00;101040.0;;;12.6;93.9
67345;BME280;54230;52.402;6.276;2022-10-16T03:30:00;101030.0;;;12.6;93.9
67345;BME280;54230;52.402;6.276;2022-10-16T03:35:00;101020.0;;;12.7;93.7
67345;BME280;54230;52.402;6.276;2022-10-16T03:40:00;101020.0;;;12.7;93.6
67345;BME280;54230;52.402;6.276;2022-10-16T03:45:00;101020.0;;;12.6;94.0
67345;BME280;54230;52.402;6.276;2022-10-16T03:50:00;101020.0;;;12.6;94.0
67345;BME280;54230;52.402;6.276;2022-10-16T03:55:00;101020.0;;;12.6;94.3
67345;BME280;54230;52.402;6.276;2022-10-16T04:00:00;101020.0;;;12.5;94.9
67345;BME280;54230;52.402;6.276;2022-10-16T04:05:00;101030.0;;;12.6;95.0
67345;BME280;54230;52.402;6.276;2022-10-16T04:10:00;101040.0;;;12.5;95.3
67345;BME280;54230;52.402;6.276;2022-10-16T04:15:00;101040.0;;;12.5;95.6
67345;BME280;54230;52.402;6.276;2022-10-16T04:20:00;101040.0;;;12.5;95.6
67345;BME280;54230;52.402;6.276;2022-10-16T04:25:00;101040.0;;;12.4;96.2
67345;BME280;54230;52.402;6.276;2022-10-16T04:30:00;101050.0;;;12.3;96.4
67345;BME280;54230;52.402;6.276;2022-10-16T04:35:00;101060.0;;;12.3;97.0
67345;BME280;54230;52.402;6.276;2022-10-16T04:40:00;101070.0;;;12.3;97.4
67345;BME280;54230;52.402;6.276;2022-10-16T04:45:00;101080.0;;;12.3;97.2
67345;BME280;54230;52.402;6.276;2022-10-16T04:50:00;101080.0;;;12.3;97.5
67345;BME280;54230;52.402;6.276;2022-10-16T04:55:00;101090.0;;;12.4;97.4
67345;BME280;54230;52.402;6.276;2022-10-16T05:00:00;101110.0;;;12.5;96.9
67345;BME280;54230;52.402;6.276;2022-10-16T05:05:00;101110.0;;;12.5;96.7
67345;BME280;54230;52.402;6.276;2022-10-16T05:10:00;101100.0;;;12.4;96.9
67345;BME280;54230;52.402;6.276;2022-10-16T05:15:00;101100.0;;;12.3;97.2
67345;BME280;54230;52.402;6.276;2022-10-16T05:20:00;101110.0;;;12.2;97.2
67345;BME280;54230;52.402;6.276;2022-10-16T05:25:00;101120.0;;;12.3;97.0
67345;BME280;54230;52.402;6.276;2022-10-16T05:30:00;101130.0;;;12.3;96.7
67345;BME280;54230;52.402;6.276;2022-10-16T05:35:00;101140.0;;;12.3;96.5
67345;BME280;54230;52.402;6.276;2022-10-16T05:40:00;101140.0;;;12.3;96.4
67345;BME280;54230;52.402;6.276;2022-10-16T05:45:00;101140.0;;;12.3;95.8
67345;BME280;54230;52.402;6.276;2022-10-16T05:50:00;101150.0;;;12.2;96.0
67345;BME280;54230;52.402;6.276;2022-10-16T05:55:00;101140.0;;;12.1;96.2
67345;BME280;54230;52.402;6.276;2022-10-16T06:00:00;101160.0;;;12.1;96.6
67345;BME280;54230;52.402;6.276;2022-10-16T06:05:00;101170.0;;;12.2;96.5
67345;BME280;54230;52.402;6.276;2022-10-16T06:10:00;101180.0;;;12.2;96.4
67345;BME280;54230;52.402;6.276;2022-10-16T06:15:00;101180.0;;;12.2;96.3
67345;BME280;54230;52.402;6.276;2022-10-16T06:20:00;101190.0;;;12.2;96.3
67345;BME280;54230;52.402;6.276;2022-10-16T06:25:00;101200.0;;;12.2;96.1
67345;BME280;54230;52.402;6.276;2022-10-16T06:30:00;101200.0;;;12.1;96.5
67345;BME280;54230;52.402;6.276;2022-10-16T06:35:00;101220.0;;;12.2;96.6
67345;BME280;54230;52.402;6.276;2022-10-16T06:40:00;101220.0;;;12.3;96.2
67345;BME280;54230;52.402;6.276;2022-10-16T06:45:00;101230.0;;;12.5;95.8
67345;BME280;54230;52.402;6.276;2022-10-16T06:50:00;101240.0;;;12.6;95.4
67345;BME280;54230;52.402;6.276;2022-10-16T06:55:00;101250.0;;;12.7;94.9
67345;BME280;54230;52.402;6.276;2022-10-16T07:00:00;101260.0;;;12.6;95.1
67345;BME280;54230;52.402;6.276;2022-10-16T07:05:00;101280.0;;;12.7;95.1
67345;BME280;54230;52.402;6.276;2022-10-16T07:10:00;101290.0;;;12.7;95.3
67345;BME280;54230;52.402;6.276;2022-10-16T07:15:00;101300.0;;;12.9;94.8
67345;BME280;54230;52.402;6.276;2022-10-16T07:20:00;101310.0;;;13.0;94.5
67345;BME280;54230;52.402;6.276;2022-10-16T07:25:00;101320.0;;;13.1;93.8
67345;BME280;54230;52.402;6.276;2022-10-16T07:30:00;101330.0;;;13.1;93.7
67345;BME280;54230;52.402;6.276;2022-10-16T07:35:00;101310.0;;;13.2;93.6
67345;BME280;54230;52.402;6.276;2022-10-16T07:40:00;101300.0;;;13.3;93.2
67345;BME280;54230;52.402;6.276;2022-10-16T07:45:00;101320.0;;;13.4;92.8
67345;BME280;54230;52.402;6.276;2022-10-16T07:50:00;101340.0;;;13.5;92.4
67345;BME280;54230;52.402;6.276;2022-10-16T07:55:00;101330.0;;;13.5;91.8
67345;BME280;54230;52.402;6.276;2022-10-16T08:00:00;101320.0;;;13.6;91.5
67345;BME280;54230;52.402;6.276;2022-10-16T08:05:00;101330.0;;;13.6;89.6
67345;BME280;54230;52.402;6.276;2022-10-16T08:10:00;101350.0;;;13.8;88.0
67345;BME280;54230;52.402;6.276;2022-10-16T08:15:00;101360.0;;;13.9;87.7
67345;BME280;54230;52.402;6.276;2022-10-16T08:20:00;101360.0;;;14.0;87.0
67345;BME280;54230;52.402;6.276;2022-10-16T08:25:00;101370.0;;;14.0;86.6
67345;BME280;54230;52.402;6.276;2022-10-16T08:30:00;101380.0;;;14.0;87.1
67345;BME280;54230;52.402;6.276;2022-10-16T08:35:00;101390.0;;;13.9;87.5
67345;BME280;54230;52.402;6.276;2022-10-16T08:40:00;101400.0;;;13.8;87.9
67345;BME280;54230;52.402;6.276;2022-10-16T08:45:08;101400.0;;;14.0;86.8
67345;BME280;54230;52.402;6.276;2022-10-16T08:50:07;101400.0;;;14.2;85.2
67345;BME280;54230;52.402;6.276;2022-10-16T08:55:00;101420.0;;;14.5;82.7
67345;BME280;54230;52.402;6.276;2022-10-16T09:00:05;101420.0;;;14.7;82.4
67345;BME280;54230;52.402;6.276;2022-10-16T09:05:16;101430.0;;;14.8;81.6
67345;BME280;54230;52.402;6.276;2022-10-16T09:10:08;101430.0;;;14.9;81.5
67345;BME280;54230;52.402;6.276;2022-10-16T09:15:06;101440.0;;;15.1;80.8
67345;BME280;54230;52.402;6.276;2022-10-16T09:20:13;101450.0;;;15.2;80.4
67345;BME280;54230;52.402;6.276;2022-10-16T09:25:10;101480.0;;;15.5;79.7
67345;BME280;54230;52.402;6.276;2022-10-16T09:30:00;101480.0;;;15.8;78.5
67345;BME280;54230;52.402;6.276;2022-10-16T09:35:00;101480.0;;;15.8;77.0
67345;BME280;54230;52.402;6.276;2022-10-16T09:40:00;101480.0;;;15.9;76.7
67345;BME280;54230;52.402;6.276;2022-10-16T09:45:00;101490.0;;;16.2;75.8
67345;BME280;54230;52.402;6.276;2022-10-16T09:50:03;101480.0;;;16.2;74.8
67345;BME280;54230;52.402;6.276;2022-10-16T09:55:02;101500.0;;;16.4;73.4
67345;BME280;54230;52.402;6.276;2022-10-16T10:00:08;101490.0;;;16.4;73.0
67345;BME280;54230;52.402;6.276;2022-10-16T10:05:01;101500.0;;;16.3;72.2
67345;BME280;54230;52.402;6.276;2022-10-16T10:10:01;101500.0;;;16.5;72.8
67345;BME280;54230;52.402;6.276;2022-10-16T10:15:04;101500.0;;;16.8;71.4
67345;BME280;54230;52.402;6.276;2022-10-16T10:20:01;101500.0;;;16.9;71.3
67345;BME280;54230;52.402;6.276;2022-10-16T10:25:12;101510.0;;;17.1;70.7
67345;BME280;54230;52.402;6.276;2022-10-16T10:30:03;101510.0;;;17.1;70.0
67345;BME280;54230;52.402;6.276;2022-10-16T10:35:11;101520.0;;;17.1;68.9
67345;BME280;54230;52.402;6.276;2022-10-16T10:40:07;101520.0;;;17.3;66.3
67345;BME280;54230;52.402;6.276;2022-10-16T10:45:16;101530.0;;;17.5;67.4
67345;BME280;54230;52.402;6.276;2022-10-16T10:50:07;101530.0;;;17.5;67.1
67345;BME280;54230;52.402;6.276;2022-10-16T10:55:10;101540.0;;;17.1;65.9
67345;BME280;54230;52.402;6.276;2022-10-16T11:00:06;101550.0;;;17.1;65.4
67345;BME280;54230;52.402;6.276;2022-10-16T11:05:11;101550.0;;;17.6;64.5
67345;BME280;54230;52.402;6.276;2022-10-16T11:10:05;101540.0;;;17.9;63.9
67345;BME280;54230;52.402;6.276;2022-10-16T11:15:03;101550.0;;;17.8;63.5
67345;BME280;54230;52.402;6.276;2022-10-16T11:20:04;101550.0;;;17.9;63.9
67345;BME280;54230;52.402;6.276;2022-10-16T11:25:04;101570.0;;;17.9;64.2
67345;BME280;54230;52.402;6.276;2022-10-16T11:30:03;101550.0;;;17.9;63.5
67345;BME280;54230;52.402;6.276;2022-10-16T11:35:06;101570.0;;;18.3;61.4
67345;BME280;54230;52.402;6.276;2022-10-16T11:40:10;101570.0;;;18.6;59.9
67345;BME280;54230;52.402;6.276;2022-10-16T11:45:03;101590.0;;;18.5;58.6
67345;BME280;54230;52.402;6.276;2022-10-16T11:50:03;101580.0;;;18.5;58.3
67345;BME280;54230;52.402;6.276;2022-10-16T11:55:05;101590.0;;;18.5;57.4
67345;BME280;54230;52.402;6.276;2022-10-16T12:00:03;101580.0;;;18.8;58.0
67345;BME280;54230;52.402;6.276;2022-10-16T12:05:09;101600.0;;;18.9;57.6
67345;BME280;54230;52.402;6.276;2022-10-16T12:10:09;101610.0;;;19.0;57.2
67345;BME280;54230;52.402;6.276;2022-10-16T12:15:01;101600.0;;;19.4;56.8
67345;BME280;54230;52.402;6.276;2022-10-16T12:20:18;101600.0;;;19.0;56.2
67345;BME280;54230;52.402;6.276;2022-10-16T12:25:00;101610.0;;;18.6;57.7
67345;BME280;54230;52.402;6.276;2022-10-16T12:30:01;101610.0;;;18.8;58.1
67345;BME280;54230;52.402;6.276;2022-10-16T12:35:01;101620.0;;;19.0;57.8
67345;BME280;54230;52.402;6.276;2022-10-16T12:40:11;101630.0;;;18.9;54.6
67345;BME280;54230;52.402;6.276;2022-10-16T12:45:00;101620.0;;;18.6;55.9
67345;BME280;54230;52.402;6.276;2022-10-16T12:50:00;101620.0;;;18.6;56.0
67345;BME280;54230;52.402;6.276;2022-10-16T12:55:00;101630.0;;;18.7;56.2
67345;BME280;54230;52.402;6.276;2022-10-16T13:00:04;101620.0;;;19.1;56.3
67345;BME280;54230;52.402;6.276;2022-10-16T13:05:12;101630.0;;;19.2;54.6
67345;BME280;54230;52.402;6.276;2022-10-16T13:10:06;101640.0;;;18.7;55.0
67345;BME280;54230;52.402;6.276;2022-10-16T13:15:11;101640.0;;;19.2;53.7
67345;BME280;54230;52.402;6.276;2022-10-16T13:20:06;101640.0;;;19.0;54.3
67345;BME280;54230;52.402;6.276;2022-10-16T13:25:10;101640.0;;;18.9;52.3
67345;BME280;54230;52.402;6.276;2022-10-16T13:30:02;101630.0;;;19.0;52.7
67345;BME280;54230;52.402;6.276;2022-10-16T13:35:00;101650.0;;;19.2;51.6
67345;BME280;54230;52.402;6.276;2022-10-16T13:40:12;101650.0;;;19.4;51.2
67345;BME280;54230;52.402;6.276;2022-10-16T13:45:00;101650.0;;;19.7;52.0
67345;BME280;54230;52.402;6.276;2022-10-16T13:50:01;101650.0;;;19.6;52.0
67345;BME280;54230;52.402;6.276;2022-10-16T13:55:00;101650.0;;;19.7;51.4
67345;BME280;54230;52.402;6.276;2022-10-16T14:00:00;101660.0;;;19.6;49.8
67345;BME280;54230;52.402;6.276;2022-10-16T14:05:00;101660.0;;;19.5;51.2
67345;BME280;54230;52.402;6.276;2022-10-16T14:10:02;101670.0;;;19.6;51.0
67345;BME280;54230;52.402;6.276;2022-10-16T14:15:00;101670.0;;;19.9;51.0
67345;BME280;54230;52.402;6.276;2022-10-16T14:20:02;101670.0;;;19.8;51.1
67345;BME280;54230;52.402;6.276;2022-10-16T14:25:00;101680.0;;;19.8;51.3
67345;BME280;54230;52.402;6.276;2022-10-16T14:30:15;101670.0;;;19.6;51.3
67345;BME280;54230;52.402;6.276;2022-10-16T14:35:00;101690.0;;;19.6;51.2
67345;BME280;54230;52.402;6.276;2022-10-16T14:40:01;101680.0;;;19.9;50.8
67345;BME280;54230;52.402;6.276;2022-10-16T14:45:00;101680.0;;;20.0;50.0
67345;BME280;54230;52.402;6.276;2022-10-16T14:50:00;101680.0;;;20.2;50.6
67345;BME280;54230;52.402;6.276;2022-10-16T14:55:00;101680.0;;;20.1;49.9
67345;BME280;54230;52.402;6.276;2022-10-16T15:00:00;101670.0;;;20.0;49.9
67345;BME280;54230;52.402;6.276;2022-10-16T15:05:10;101690.0;;;20.1;50.8
67345;BME280;54230;52.402;6.276;2022-10-16T15:10:00;101680.0;;;20.0;51.4
67345;BME280;54230;52.402;6.276;2022-10-16T15:15:00;101690.0;;;20.1;51.2
67345;BME280;54230;52.402;6.276;2022-10-16T15:20:00;101700.0;;;20.1;51.9
67345;BME280;54230;52.402;6.276;2022-10-16T15:25:00;101700.0;;;20.2;51.9
67345;BME280;54230;52.402;6.276;2022-10-16T15:50:00;101690.0;;;19.2;55.6
67345;BME280;54230;52.402;6.276;2022-10-16T15:55:00;101690.0;;;18.6;58.2
67345;BME280;54230;52.402;6.276;2022-10-16T16:00:00;101700.0;;;18.1;59.9
67345;BME280;54230;52.402;6.276;2022-10-16T16:05:00;101700.0;;;18.0;60.1
67345;BME280;54230;52.402;6.276;2022-10-16T16:10:00;101710.0;;;17.7;62.4
67345;BME280;54230;52.402;6.276;2022-10-16T16:15:00;101710.0;;;17.5;63.1
67345;BME280;54230;52.402;6.276;2022-10-16T16:20:00;101700.0;;;17.4;64.4
67345;BME280;54230;52.402;6.276;2022-10-16T16:25:00;101710.0;;;17.1;67.1
67345;BME280;54230;52.402;6.276;2022-10-16T16:30:00;101700.0;;;17.0;68.1
67345;BME280;54230;52.402;6.276;2022-10-16T16:35:00;101720.0;;;16.9;68.8
67345;BME280;54230;52.402;6.276;2022-10-16T16:40:00;101730.0;;;16.7;69.6
67345;BME280;54230;52.402;6.276;2022-10-16T16:45:00;101720.0;;;16.6;70.7
67345;BME280;54230;52.402;6.276;2022-10-16T16:50:00;101730.0;;;16.5;71.3
67345;BME280;54230;52.402;6.276;2022-10-16T16:55:00;101730.0;;;16.3;71.7
67345;BME280;54230;52.402;6.276;2022-10-16T17:00:00;101730.0;;;16.2;72.3
67345;BME280;54230;52.402;6.276;2022-10-16T17:05:00;101730.0;;;16.1;72.4
67345;BME280;54230;52.402;6.276;2022-10-16T17:10:00;101740.0;;;15.8;73.4
67345;BME280;54230;52.402;6.276;2022-10-16T17:15:00;101770.0;;;15.6;74.0
67345;BME280;54230;52.402;6.276;2022-10-16T17:20:00;101760.0;;;15.5;75.0
67345;BME280;54230;52.402;6.276;2022-10-16T17:25:00;101770.0;;;15.3;75.6
67345;BME280;54230;52.402;6.276;2022-10-16T17:30:00;101790.0;;;15.2;76.1
67345;BME280;54230;52.402;6.276;2022-10-16T17:35:00;101780.0;;;15.1;76.3
67345;BME280;54230;52.402;6.276;2022-10-16T17:40:00;101780.0;;;15.1;76.6
67345;BME280;54230;52.402;6.276;2022-10-16T17:45:00;101770.0;;;14.9;77.0
67345;BME280;54230;52.402;6.276;2022-10-16T17:50:00;101770.0;;;14.9;76.7
67345;BME280;54230;52.402;6.276;2022-10-16T17:55:00;101770.0;;;14.8;76.7
67345;BME280;54230;52.402;6.276;2022-10-16T18:00:00;101770.0;;;14.6;77.2
67345;BME280;54230;52.402;6.276;2022-10-16T18:05:00;101780.0;;;14.5;78.0
67345;BME280;54230;52.402;6.276;2022-10-16T18:10:00;101800.0;;;14.5;77.9
67345;BME280;54230;52.402;6.276;2022-10-16T18:15:00;101800.0;;;14.6;78.4
67345;BME280;54230;52.402;6.276;2022-10-16T18:20:00;101790.0;;;14.5;77.9
67345;BME280;54230;52.402;6.276;2022-10-16T18:25:00;101780.0;;;14.5;78.0
67345;BME280;54230;52.402;6.276;2022-10-16T18:30:00;101780.0;;;14.5;78.4
67345;BME280;54230;52.402;6.276;2022-10-16T18:35:00;101790.0;;;14.4;78.4
67345;BME280;54230;52.402;6.276;2022-10-16T18:40:00;101800.0;;;14.5;78.6
67345;BME280;54230;52.402;6.276;2022-10-16T18:45:00;101780.0;;;14.6;78.8
67345;BME280;54230;52.402;6.276;2022-10-16T18:50:00;101800.0;;;14.5;78.7
67345;BME280;54230;52.402;6.276;2022-10-16T18:55:00;101800.0;;;14.5;79.4
67345;BME280;54230;52.402;6.276;2022-10-16T19:00:00;101800.0;;;14.3;80.2
67345;BME280;54230;52.402;6.276;2022-10-16T19:05:00;101810.0;;;14.4;80.2
67345;BME280;54230;52.402;6.276;2022-10-16T19:10:00;101810.0;;;14.4;80.3
67345;BME280;54230;52.402;6.276;2022-10-16T19:15:00;101800.0;;;14.4;80.5
67345;BME280;54230;52.402;6.276;2022-10-16T19:20:00;101820.0;;;14.4;80.5
67345;BME280;54230;52.402;6.276;2022-10-16T19:25:00;101830.0;;;14.4;80.1
67345;BME280;54230;52.402;6.276;2022-10-16T19:30:00;101840.0;;;14.2;80.9
67345;BME280;54230;52.402;6.276;2022-10-16T19:35:00;101860.0;;;14.2;80.9
67345;BME280;54230;52.402;6.276;2022-10-16T19:40:00;101860.0;;;14.3;80.7
67345;BME280;54230;52.402;6.276;2022-10-16T19:45:00;101860.0;;;14.4;81.0
67345;BME280;54230;52.402;6.276;2022-10-16T19:50:00;101850.0;;;14.4;82.3
67345;BME280;54230;52.402;6.276;2022-10-16T19:55:00;101850.0;;;14.4;82.4
67345;BME280;54230;52.402;6.276;2022-10-16T20:00:00;101840.0;;;14.4;83.2
67345;BME280;54230;52.402;6.276;2022-10-16T20:05:00;101830.0;;;14.4;83.4
67345;BME280;54230;52.402;6.276;2022-10-16T20:10:00;101840.0;;;14.4;83.1
67345;BME280;54230;52.402;6.276;2022-10-16T20:15:00;101830.0;;;14.4;83.3
67345;BME280;54230;52.402;6.276;2022-10-16T20:20:00;101820.0;;;14.4;83.0
67345;BME280;54230;52.402;6.276;2022-10-16T20:25:00;101830.0;;;14.3;83.3
67345;BME280;54230;52.402;6.276;2022-10-16T20:30:00;101840.0;;;14.1;84.1
67345;BME280;54230;52.402;6.276;2022-10-16T20:35:00;101840.0;;;14.0;84.2
67345;BME280;54230;52.402;6.276;2022-10-16T20:40:00;101850.0;;;14.2;84.8
67345;BME280;54230;52.402;6.276;2022-10-16T20:45:00;101840.0;;;14.2;84.9
67345;BME280;54230;52.402;6.276;2022-10-16T20:50:00;101840.0;;;14.3;84.5
67345;BME280;54230;52.402;6.276;2022-10-16T20:55:00;101840.0;;;14.3;84.7
67345;BME280;54230;52.402;6.276;2022-10-16T21:00:00;101820.0;;;14.3;85.0
67345;BME280;54230;52.402;6.276;2022-10-16T21:05:00;101830.0;;;14.3;85.2
67345;BME280;54230;52.402;6.276;2022-10-16T21:10:00;101830.0;;;14.3;85.9
67345;BME280;54230;52.402;6.276;2022-10-16T21:15:00;101820.0;;;14.3;86.0
67345;BME280;54230;52.402;6.276;2022-10-16T21:20:00;101810.0;;;14.3;86.4
67345;BME280;54230;52.402;6.276;2022-10-16T21:25:00;101790.0;;;14.2;86.5
67345;BME280;54230;52.402;6.276;2022-10-16T21:30:00;101820.0;;;14.3;87.0
67345;BME280;54230;52.402;6.276;2022-10-16T21:35:00;101810.0;;;14.3;86.7
67345;BME280;54230;52.402;6.276;2022-10-16T21:40:00;101810.0;;;14.4;86.5
67345;BME280;54230;52.402;6.276;2022-10-16T21:45:00;101810.0;;;14.4;86.3
67345;BME280;54230;52.402;6.276;2022-10-16T21:50:00;101800.0;;;14.5;86.3
67345;BME280;54230;52.402;6.276;2022-10-16T21:55:00;101800.0;;;14.5;86.4
67345;BME280;54230;52.402;6.276;2022-10-16T22:00:00;101790.0;;;14.5;86.6
67345;BME280;54230;52.402;6.276;2022-10-16T22:05:00;101790.0;;;14.6;86.7
67345;BME280;54230;52.402;6.276;2022-10-16T22:10:00;101780.0;;;14.6;86.7
67345;BME280;54230;52.402;6.276;2022-10-16T22:15:00;101780.0;;;14.5;86.9
67345;BME280;54230;52.402;6.276;2022-10-16T22:20:00;101760.0;;;14.4;87.1
67345;BME280;54230;52.402;6.276;2022-10-16T22:25:00;101720.0;;;14.3;87.5
67345;BME280;54230;52.402;6.276;2022-10-16T22:30:00;101730.0;;;14.4;87.6
67345;BME280;54230;52.402;6.276;2022-10-16T22:35:00;101730.0;;;14.3;88.0
67345;BME280;54230;52.402;6.276;2022-10-16T22:40:00;101730.0;;;14.2;88.3
67345;BME280;54230;52.402;6.276;2022-10-16T22:45:00;101720.0;;;14.1;88.4
67345;BME280;54230;52.402;6.276;2022-10-16T22:50:00;101720.0;;;14.0;88.8
67345;BME280;54230;52.402;6.276;2022-10-16T22:55:00;101730.0;;;13.9;89.6
67345;BME280;54230;52.402;6.276;2022-10-16T23:00:00;101730.0;;;13.9;89.9
67345;BME280;54230;52.402;6.276;2022-10-16T23:05:00;101740.0;;;13.9;90.1
67345;BME280;54230;52.402;6.276;2022-10-16T23:10:00;101730.0;;;13.8;90.5
67345;BME280;54230;52.402;6.276;2022-10-16T23:15:00;101740.0;;;13.8;90.9
67345;BME280;54230;52.402;6.276;2022-10-16T23:20:00;101740.0;;;13.8;91.1
67345;BME280;54230;52.402;6.276;2022-10-16T23:25:00;101740.0;;;13.8;91.4
67345;BME280;54230;52.402;6.276;2022-10-16T23:30:00;101740.0;;;13.8;91.7
67345;BME280;54230;52.402;6.276;2022-10-16T23:35:00;101730.0;;;13.8;91.7
67345;BME280;54230;52.402;6.276;2022-10-16T23:40:00;101730.0;;;13.9;91.8
67345;BME280;54230;52.402;6.276;2022-10-16T23:45:00;101740.0;;;13.9;91.9
67345;BME280;54230;52.402;6.276;2022-10-16T23:50:00;101740.0;;;14.0;92.0
67345;BME280;54230;52.402;6.276;2022-10-16T23:55:00;101720.0;;;13.9;92.2
